createdAt,value
2019-03-23T00:00:29.614Z,9.30
2019-03-23T00:03:01.383Z,9.30
2019-03-23T00:05:33.262Z,9.30
2019-03-23T00:08:05.613Z,9.30
2019-03-23T00:10:37.950Z,9.30
2019-03-23T00:13:09.895Z,9.30
2019-03-23T00:15:42.717Z,9.30
2019-03-23T00:18:14.855Z,9.30
2019-03-23T00:20:46.718Z,9.40
2019-03-23T00:23:18.604Z,9.40
2019-03-23T00:25:50.684Z,9.30
2019-03-23T00:28:22.457Z,9.30
2019-03-23T00:30:54.209Z,9.30
2019-03-23T00:33:26.396Z,9.30
2019-03-23T00:35:58.194Z,9.30
2019-03-23T00:38:29.941Z,9.30
2019-03-23T00:41:02.031Z,9.30
2019-03-23T00:43:33.928Z,9.30
2019-03-23T00:46:05.887Z,9.30
2019-03-23T00:48:38.263Z,9.30
2019-03-23T00:51:10.064Z,9.30
2019-03-23T00:53:42.018Z,9.30
2019-03-23T00:56:16.484Z,9.30
2019-03-23T00:58:48.147Z,9.30
2019-03-23T01:01:20.143Z,9.30
2019-03-23T01:03:53.110Z,9.30
2019-03-23T01:06:25.156Z,9.40
2019-03-23T01:08:57.301Z,9.30
2019-03-23T01:11:29.279Z,9.30
2019-03-23T01:14:01.777Z,9.40
2019-03-23T01:16:33.639Z,9.40
2019-03-23T01:19:05.852Z,9.30
2019-03-23T01:21:38.714Z,9.30
2019-03-23T01:24:10.540Z,9.30
2019-03-23T01:26:42.506Z,9.30
2019-03-23T01:29:14.506Z,9.30
2019-03-23T01:31:46.985Z,9.40
2019-03-23T01:34:19.614Z,9.40
2019-03-23T01:37:02.296Z,9.40
2019-03-23T01:39:26.333Z,9.40
2019-03-23T01:41:58.238Z,9.40
2019-03-23T01:44:30.207Z,9.30
2019-03-23T01:47:01.996Z,9.30
2019-03-23T01:49:34.127Z,9.30
2019-03-23T01:52:05.899Z,9.30
2019-03-23T01:54:38.139Z,9.40
2019-03-23T01:57:09.931Z,9.40
2019-03-23T01:59:42.018Z,9.30
2019-03-23T02:02:14.645Z,9.30
2019-03-23T02:04:46.527Z,9.40
2019-03-23T02:07:18.277Z,9.30
2019-03-23T02:09:50.011Z,9.30
2019-03-23T02:12:22.126Z,9.30
2019-03-23T02:14:53.921Z,9.30
2019-03-23T02:17:25.685Z,9.30
2019-03-23T02:19:57.536Z,9.30
2019-03-23T02:22:30.217Z,9.20
2019-03-23T02:25:03.583Z,9.30
2019-03-23T02:27:35.383Z,9.40
2019-03-23T02:30:08.192Z,9.40
2019-03-23T02:32:40.114Z,9.30
2019-03-23T02:35:12.692Z,9.20
2019-03-23T02:37:45.209Z,9.20
2019-03-23T02:40:17.040Z,9.10
2019-03-23T02:42:49.359Z,9.10
2019-03-23T02:45:21.555Z,9.10
2019-03-23T02:47:54.398Z,9.10
2019-03-23T02:50:26.843Z,9.20
2019-03-23T02:52:58.645Z,9.10
2019-03-23T02:55:30.451Z,9.20
2019-03-23T02:58:02.503Z,9.30
2019-03-23T03:00:34.422Z,9.30
2019-03-23T03:03:06.571Z,9.30
2019-03-23T03:05:38.427Z,9.30
2019-03-23T03:08:11.572Z,9.30
2019-03-23T03:10:44.513Z,9.30
2019-03-23T03:13:16.752Z,9.30
2019-03-23T03:15:48.516Z,9.20
2019-03-23T03:18:20.350Z,9.30
2019-03-23T03:20:53.079Z,9.30
2019-03-23T03:23:24.914Z,9.30
2019-03-23T03:25:56.866Z,9.30
2019-03-23T03:28:28.755Z,9.20
2019-03-23T03:31:00.549Z,9.20
2019-03-23T03:33:33.076Z,9.20
2019-03-23T03:36:05.350Z,9.20
2019-03-23T03:38:37.328Z,9.20
2019-03-23T03:41:09.762Z,9.20
2019-03-23T03:43:41.635Z,9.20
2019-03-23T03:46:13.518Z,9.20
2019-03-23T03:48:45.402Z,9.10
2019-03-23T03:51:19.191Z,9.10
2019-03-23T03:53:51.126Z,9.10
2019-03-23T03:56:23.004Z,9.20
2019-03-23T03:58:55.232Z,9.20
2019-03-23T04:01:27.018Z,9.20
2019-03-23T04:03:58.818Z,9.20
2019-03-23T04:06:31.139Z,9.20
2019-03-23T04:09:03.359Z,9.30
2019-03-23T04:11:35.542Z,9.30
2019-03-23T04:14:07.600Z,9.30
2019-03-23T04:16:39.386Z,9.30
2019-03-23T04:19:12.381Z,9.20
2019-03-23T04:21:44.268Z,9.20
2019-03-23T04:24:16.103Z,9.10
2019-03-23T04:26:47.975Z,9.10
2019-03-23T04:29:19.740Z,9.10
2019-03-23T04:31:51.530Z,9.10
2019-03-23T04:34:23.354Z,9.10
2019-03-23T04:36:55.606Z,9.00
2019-03-23T04:39:27.648Z,9.00
2019-03-23T04:41:59.533Z,9.00
2019-03-23T04:44:31.364Z,9.00
2019-03-23T04:47:04.400Z,9.00
2019-03-23T04:49:38.079Z,9.00
2019-03-23T04:52:10.041Z,9.00
2019-03-23T04:54:42.029Z,9.10
2019-03-23T04:57:14.188Z,9.10
2019-03-23T04:59:46.499Z,9.10
2019-03-23T05:02:18.329Z,9.10
2019-03-23T05:04:50.435Z,9.00
2019-03-23T05:07:22.624Z,9.00
2019-03-23T05:09:54.785Z,9.00
2019-03-23T05:12:26.487Z,9.00
2019-03-23T05:14:58.416Z,9.10
2019-03-23T05:17:31.789Z,9.10
2019-03-23T05:20:04.230Z,9.10
2019-03-23T05:22:36.300Z,9.10
2019-03-23T05:25:09.965Z,9.00
2019-03-23T05:27:42.340Z,9.00
2019-03-23T05:30:14.298Z,9.00
2019-03-23T05:32:46.471Z,9.00
2019-03-23T05:35:18.746Z,9.00
2019-03-23T05:37:50.690Z,9.00
2019-03-23T05:40:23.084Z,8.90
2019-03-23T05:42:55.662Z,9.00
2019-03-23T05:45:27.452Z,9.00
2019-03-23T05:47:59.409Z,9.00
2019-03-23T05:50:31.711Z,9.00
2019-03-23T05:53:03.913Z,8.90
2019-03-23T05:55:35.950Z,8.90
2019-03-23T05:58:08.358Z,8.90
2019-03-23T06:00:40.747Z,8.90
2019-03-23T06:03:12.990Z,8.90
2019-03-23T06:05:45.008Z,8.90
2019-03-23T06:08:17.014Z,9.00
2019-03-23T06:10:49.380Z,9.00
2019-03-23T06:13:21.427Z,9.10
2019-03-23T06:15:53.293Z,9.10
2019-03-23T06:18:25.234Z,9.10
2019-03-23T06:20:57.311Z,9.10
2019-03-23T06:23:29.346Z,9.10
2019-03-23T06:26:01.259Z,9.10
2019-03-23T06:28:33.362Z,9.10
2019-03-23T06:31:05.194Z,9.20
2019-03-23T06:33:38.200Z,9.10
2019-03-23T06:36:12.110Z,9.20
2019-03-23T06:38:44.136Z,9.20
2019-03-23T06:41:16.398Z,9.30
2019-03-23T06:43:48.703Z,9.30
2019-03-23T06:46:21.121Z,9.30
2019-03-23T06:48:53.339Z,9.40
2019-03-23T06:51:26.360Z,9.50
2019-03-23T06:53:58.511Z,9.50
2019-03-23T06:56:31.865Z,9.50
2019-03-23T06:59:04.635Z,9.60
2019-03-23T07:01:37.849Z,9.50
2019-03-23T07:04:09.804Z,9.60
2019-03-23T07:06:42.081Z,9.60
2019-03-23T07:09:16.328Z,9.60
2019-03-23T07:11:48.031Z,9.60
2019-03-23T07:14:20.286Z,9.60
2019-03-23T07:16:52.121Z,9.70
2019-03-23T07:19:24.348Z,9.80
2019-03-23T07:21:56.373Z,9.80
2019-03-23T07:24:28.835Z,9.80
2019-03-23T07:27:00.965Z,9.80
2019-03-23T07:29:32.887Z,9.80
2019-03-23T07:32:07.364Z,9.90
2019-03-23T07:34:39.231Z,9.90
2019-03-23T07:37:11.187Z,9.90
2019-03-23T07:39:43.619Z,9.90
2019-03-23T07:42:16.090Z,9.90
2019-03-23T07:44:48.049Z,9.90
2019-03-23T07:47:19.858Z,10.00
2019-03-23T07:49:52.284Z,10.10
2019-03-23T07:52:24.619Z,10.10
2019-03-23T07:54:56.833Z,10.20
2019-03-23T07:57:28.656Z,10.20
2019-03-23T08:00:00.649Z,10.20
2019-03-23T08:02:32.967Z,10.20
2019-03-23T08:05:05.420Z,10.20
2019-03-23T08:07:37.220Z,10.20
2019-03-23T08:10:09.756Z,10.30
2019-03-23T08:12:41.726Z,10.40
2019-03-23T08:15:13.833Z,10.40
2019-03-23T08:17:46.172Z,10.50
2019-03-23T08:20:18.563Z,10.50
2019-03-23T08:22:50.321Z,10.50
2019-03-23T08:25:22.489Z,10.50
2019-03-23T08:27:54.480Z,10.60
2019-03-23T08:30:26.577Z,10.60
2019-03-23T08:32:58.625Z,10.70
2019-03-23T08:35:30.492Z,10.70
2019-03-23T08:38:02.326Z,10.70
2019-03-23T08:40:35.846Z,10.70
2019-03-23T08:43:09.424Z,10.80
2019-03-23T08:45:41.606Z,10.80
2019-03-23T08:48:14.324Z,10.90
2019-03-23T08:50:46.294Z,10.90
2019-03-23T08:53:18.348Z,10.90
2019-03-23T08:55:50.735Z,10.90
2019-03-23T08:58:30.031Z,11.00
2019-03-23T09:01:04.067Z,11.10
2019-03-23T09:03:36.043Z,11.10
2019-03-23T09:06:08.072Z,11.20
2019-03-23T09:08:40.077Z,11.20
2019-03-23T09:11:20.223Z,11.20
2019-03-23T09:13:46.060Z,11.10
2019-03-23T09:16:18.154Z,11.20
2019-03-23T09:18:50.068Z,11.30
2019-03-23T09:21:22.115Z,11.20
2019-03-23T09:23:54.200Z,11.10
2019-03-23T09:26:26.136Z,11.20
2019-03-23T09:28:58.307Z,11.20
2019-03-23T09:31:30.654Z,11.30
2019-03-23T09:34:02.766Z,11.50
2019-03-23T09:36:35.471Z,11.40
2019-03-23T09:39:08.323Z,11.30
2019-03-23T09:41:40.151Z,11.20
2019-03-23T09:44:12.014Z,11.30
2019-03-23T09:46:44.435Z,11.10
2019-03-23T09:49:16.489Z,11.10
2019-03-23T09:51:48.521Z,11.20
2019-03-23T09:54:20.383Z,11.30
2019-03-23T09:56:52.723Z,11.40
2019-03-23T09:59:24.684Z,11.30
2019-03-23T10:01:57.549Z,11.20
2019-03-23T10:04:29.527Z,11.30
2019-03-23T10:07:01.815Z,11.40
2019-03-23T10:09:33.631Z,11.50
2019-03-23T10:12:05.592Z,11.50
2019-03-23T10:14:37.433Z,11.60
2019-03-23T10:17:09.593Z,11.50
2019-03-23T10:19:41.466Z,11.70
2019-03-23T10:22:13.445Z,11.70
2019-03-23T10:24:45.647Z,11.90
2019-03-23T10:27:17.709Z,12.00
2019-03-23T10:29:49.731Z,12.10
2019-03-23T10:32:21.693Z,11.90
2019-03-23T10:34:53.511Z,11.90
2019-03-23T10:37:26.160Z,11.90
2019-03-23T10:40:04.201Z,12.00
2019-03-23T10:42:36.539Z,12.20
2019-03-23T10:45:09.375Z,12.20
2019-03-23T10:47:41.403Z,12.40
2019-03-23T10:50:13.475Z,12.50
2019-03-23T10:52:45.414Z,12.40
2019-03-23T10:55:17.616Z,12.70
2019-03-23T10:57:50.092Z,13.10
2019-03-23T11:00:22.047Z,12.90
2019-03-23T11:02:55.563Z,12.80
2019-03-23T11:05:28.249Z,12.60
2019-03-23T11:08:00.232Z,12.70
2019-03-23T11:10:41.467Z,12.80
2019-03-23T11:13:06.258Z,13.10
2019-03-23T11:15:38.170Z,13.20
2019-03-23T11:18:12.858Z,13.40
2019-03-23T11:20:45.822Z,13.70
2019-03-23T11:23:17.766Z,13.30
2019-03-23T11:25:50.753Z,13.20
2019-03-23T11:28:23.083Z,13.40
2019-03-23T11:30:55.017Z,13.50
2019-03-23T11:33:27.306Z,13.30
2019-03-23T11:35:59.480Z,13.20
2019-03-23T11:38:31.858Z,13.40
2019-03-23T11:41:03.972Z,13.30
2019-03-23T11:43:35.874Z,13.50
2019-03-23T11:46:07.920Z,13.10
2019-03-23T11:48:40.289Z,12.80
2019-03-23T11:51:12.241Z,12.70
2019-03-23T11:53:44.414Z,12.60
2019-03-23T11:56:16.427Z,12.60
2019-03-23T11:58:48.372Z,12.60
2019-03-23T12:01:20.298Z,12.70
2019-03-23T12:03:52.415Z,12.50
2019-03-23T12:06:25.770Z,12.50
2019-03-23T12:08:58.495Z,12.50
2019-03-23T12:11:30.557Z,12.70
2019-03-23T12:14:02.419Z,12.70
2019-03-23T12:16:34.517Z,12.60
2019-03-23T12:19:06.467Z,12.60
2019-03-23T12:21:38.577Z,12.60
2019-03-23T12:24:10.497Z,12.60
2019-03-23T12:26:42.816Z,12.50
2019-03-23T12:29:14.971Z,12.30
2019-03-23T12:31:46.935Z,12.30
2019-03-23T12:34:19.013Z,12.30
2019-03-23T12:36:51.233Z,12.10
2019-03-23T12:39:23.133Z,12.10
2019-03-23T12:41:55.255Z,12.20
2019-03-23T12:44:29.615Z,12.20
2019-03-23T12:47:01.603Z,12.40
2019-03-23T12:49:34.095Z,12.40
2019-03-23T12:52:06.395Z,12.40
2019-03-23T12:54:38.564Z,12.20
2019-03-23T12:57:12.369Z,12.10
2019-03-23T12:59:44.383Z,11.90
2019-03-23T13:02:16.785Z,12.00
2019-03-23T13:04:48.632Z,11.90
2019-03-23T13:07:21.133Z,12.10
2019-03-23T13:09:53.430Z,11.90
2019-03-23T13:12:25.956Z,12.00
2019-03-23T13:14:58.243Z,12.10
2019-03-23T13:17:30.958Z,11.90
2019-03-23T13:20:03.212Z,11.70
2019-03-23T13:22:36.141Z,11.60
2019-03-23T13:25:09.379Z,11.60
2019-03-23T13:27:42.253Z,11.50
2019-03-23T13:30:15.093Z,11.40
2019-03-23T13:32:47.358Z,11.40
2019-03-23T13:35:19.789Z,11.30
2019-03-23T13:37:52.108Z,11.30
2019-03-23T13:40:23.945Z,11.30
2019-03-23T13:42:56.102Z,11.20
2019-03-23T13:45:28.070Z,11.20
2019-03-23T13:48:00.071Z,11.40
2019-03-23T13:50:33.257Z,11.50
2019-03-23T13:53:05.038Z,11.40
2019-03-23T13:55:36.992Z,11.40
2019-03-23T13:58:16.009Z,11.30
2019-03-23T14:00:49.604Z,11.20
2019-03-23T14:03:21.876Z,11.10
2019-03-23T14:05:54.483Z,11.00
2019-03-23T14:08:26.327Z,11.10
2019-03-23T14:10:59.237Z,11.10
2019-03-23T14:13:31.704Z,11.20
2019-03-23T14:16:03.897Z,11.10
2019-03-23T14:18:35.938Z,11.10
2019-03-23T14:21:08.182Z,11.10
2019-03-23T14:23:40.836Z,11.10
2019-03-23T14:26:12.929Z,11.10
2019-03-23T14:28:45.210Z,11.10
2019-03-23T14:31:17.239Z,11.10
2019-03-23T14:33:49.417Z,11.10
2019-03-23T14:36:21.238Z,11.00
2019-03-23T14:38:53.561Z,11.10
2019-03-23T14:41:25.759Z,11.20
2019-03-23T14:43:59.863Z,11.10
2019-03-23T14:46:31.674Z,10.90
2019-03-23T14:49:03.529Z,10.90
2019-03-23T14:51:35.683Z,11.00
2019-03-23T14:54:08.119Z,10.90
2019-03-23T14:56:40.269Z,11.00
2019-03-23T14:59:12.241Z,10.90
2019-03-23T15:01:44.810Z,10.90
2019-03-23T15:04:17.187Z,10.90
2019-03-23T15:06:49.094Z,10.90
2019-03-23T15:09:21.121Z,10.90
2019-03-23T15:11:53.409Z,10.90
2019-03-23T15:14:26.071Z,10.90
2019-03-23T15:16:58.046Z,11.00
2019-03-23T15:19:29.986Z,11.10
2019-03-23T15:22:02.074Z,11.10
2019-03-23T15:24:34.183Z,11.10
2019-03-23T15:27:06.105Z,11.10
2019-03-23T15:29:38.124Z,11.10
2019-03-23T15:32:11.162Z,11.10
2019-03-23T15:34:43.215Z,11.10
2019-03-23T15:37:16.338Z,11.10
2019-03-23T15:39:48.297Z,11.10
2019-03-23T15:42:24.785Z,11.00
2019-03-23T15:44:54.068Z,11.00
2019-03-23T15:47:26.274Z,11.00
2019-03-23T15:49:58.274Z,11.00
2019-03-23T15:52:30.367Z,11.10
2019-03-23T15:55:03.466Z,11.10
2019-03-23T15:57:36.573Z,11.10
2019-03-23T16:00:10.238Z,11.20
2019-03-23T16:02:42.301Z,11.30
2019-03-23T16:05:16.242Z,11.30
2019-03-23T16:07:48.076Z,11.30
2019-03-23T16:10:20.150Z,11.10
2019-03-23T16:12:52.021Z,11.10
2019-03-23T16:15:24.275Z,11.00
2019-03-23T16:17:56.464Z,11.00
2019-03-23T16:20:29.630Z,11.00
2019-03-23T16:23:02.058Z,11.00
2019-03-23T16:25:34.373Z,11.00
2019-03-23T16:28:06.770Z,10.80
2019-03-23T16:30:38.764Z,10.80
2019-03-23T16:33:10.792Z,10.80
2019-03-23T16:35:42.706Z,10.80
2019-03-23T16:38:15.136Z,10.70
2019-03-23T16:40:47.429Z,10.70
2019-03-23T16:43:19.438Z,10.60
2019-03-23T16:45:51.259Z,10.60
2019-03-23T16:48:23.271Z,10.60
2019-03-23T16:50:55.316Z,10.50
2019-03-23T16:53:27.825Z,10.40
2019-03-23T16:55:59.626Z,10.40
2019-03-23T16:58:32.289Z,10.40
2019-03-23T17:01:04.686Z,10.40
2019-03-23T17:03:36.817Z,10.30
2019-03-23T17:06:08.642Z,10.30
2019-03-23T17:08:40.848Z,10.20
2019-03-23T17:11:12.856Z,10.10
2019-03-23T17:13:44.874Z,10.10
2019-03-23T17:16:16.915Z,10.10
2019-03-23T17:18:49.903Z,10.00
2019-03-23T17:21:22.991Z,10.00
2019-03-23T17:23:55.247Z,9.90
2019-03-23T17:26:27.173Z,9.90
2019-03-23T17:28:59.166Z,9.80
2019-03-23T17:31:32.071Z,9.80
2019-03-23T17:34:04.008Z,9.80
2019-03-23T17:36:35.883Z,9.70
2019-03-23T17:39:08.400Z,9.60
2019-03-23T17:41:40.915Z,9.60
2019-03-23T17:44:13.103Z,9.60
2019-03-23T17:46:45.109Z,9.60
2019-03-23T17:49:17.320Z,9.50
2019-03-23T17:51:50.567Z,9.50
2019-03-23T17:54:23.986Z,9.50
2019-03-23T17:56:56.248Z,9.50
2019-03-23T17:59:28.871Z,9.50
2019-03-23T18:02:00.678Z,9.40
2019-03-23T18:04:32.747Z,9.40
2019-03-23T18:07:05.025Z,9.30
2019-03-23T18:09:36.887Z,9.30
2019-03-23T18:12:09.131Z,9.30
2019-03-23T18:14:41.917Z,9.30
2019-03-23T18:17:14.127Z,9.30
2019-03-23T18:19:46.393Z,9.20
2019-03-23T18:22:19.580Z,9.20
2019-03-23T18:24:51.367Z,9.20
2019-03-23T18:27:23.150Z,9.20
2019-03-23T18:29:56.514Z,9.10
2019-03-23T18:32:28.232Z,9.10
2019-03-23T18:35:00.419Z,9.10
2019-03-23T18:37:32.604Z,9.00
2019-03-23T18:40:05.379Z,9.00
2019-03-23T18:42:38.175Z,9.00
2019-03-23T18:45:11.569Z,8.90
2019-03-23T18:47:44.224Z,8.90
2019-03-23T18:50:16.099Z,8.90
2019-03-23T18:52:47.920Z,8.80
2019-03-23T18:55:19.705Z,8.80
2019-03-23T18:57:52.884Z,8.70
2019-03-23T19:00:44.819Z,8.70
2019-03-23T19:03:16.685Z,8.70
2019-03-23T19:05:48.548Z,8.60
2019-03-23T19:08:20.514Z,8.60
2019-03-23T19:10:54.202Z,8.50
2019-03-23T19:13:26.478Z,8.50
2019-03-23T19:15:58.950Z,8.50
2019-03-23T19:18:30.817Z,8.50
2019-03-23T19:21:04.861Z,8.40
2019-03-23T19:23:38.225Z,8.40
2019-03-23T19:26:13.263Z,8.40
2019-03-23T19:28:45.173Z,8.30
2019-03-23T19:31:17.034Z,8.30
2019-03-23T19:33:49.024Z,8.30
2019-03-23T19:36:21.019Z,8.30
2019-03-23T19:38:52.927Z,8.20
2019-03-23T19:41:25.145Z,8.20
2019-03-23T19:43:57.089Z,8.10
2019-03-23T19:46:28.982Z,8.10
2019-03-23T19:49:00.877Z,8.00
2019-03-23T19:51:32.805Z,8.00
2019-03-23T19:54:04.940Z,8.00
2019-03-23T19:56:36.826Z,7.90
2019-03-23T19:59:08.656Z,7.90
2019-03-23T20:01:40.447Z,7.90
2019-03-23T20:04:12.331Z,7.90
2019-03-23T20:06:44.166Z,7.80
2019-03-23T20:09:16.146Z,7.80
2019-03-23T20:11:48.238Z,7.70
2019-03-23T20:14:20.185Z,7.70
2019-03-23T20:16:52.332Z,7.60
2019-03-23T20:19:25.979Z,7.60
2019-03-23T20:21:58.219Z,7.50
2019-03-23T20:24:31.691Z,7.50
2019-03-23T20:27:04.935Z,7.40
2019-03-23T20:29:37.207Z,7.30
2019-03-23T20:32:10.020Z,7.20
2019-03-23T20:34:43.439Z,7.20
2019-03-23T20:37:20.518Z,7.20
2019-03-23T20:39:53.038Z,7.20
2019-03-23T20:42:25.374Z,7.10
2019-03-23T20:44:57.294Z,7.00
2019-03-23T20:47:29.197Z,7.00
2019-03-23T20:50:01.330Z,7.00
2019-03-23T20:52:34.628Z,7.00
2019-03-23T20:55:08.276Z,6.90
2019-03-23T20:57:40.305Z,6.90
2019-03-23T21:00:12.547Z,6.80
2019-03-23T21:02:44.523Z,6.80
2019-03-23T21:05:16.810Z,6.80
2019-03-23T21:07:49.220Z,6.80
2019-03-23T21:10:21.313Z,6.70
2019-03-23T21:12:54.826Z,6.70
2019-03-23T21:15:27.676Z,6.70
2019-03-23T21:18:00.100Z,6.70
2019-03-23T21:20:32.267Z,6.60
2019-03-23T21:23:04.208Z,6.60
2019-03-23T21:25:36.297Z,6.60
2019-03-23T21:28:08.177Z,6.50
2019-03-23T21:30:40.106Z,6.50
2019-03-23T21:33:12.343Z,6.50
2019-03-23T21:35:44.982Z,6.50
2019-03-23T21:38:17.026Z,6.40
2019-03-23T21:40:51.621Z,6.40
2019-03-23T21:43:25.669Z,6.40
2019-03-23T21:45:57.413Z,6.40
2019-03-23T21:48:29.305Z,6.40
2019-03-23T21:51:01.749Z,6.40
2019-03-23T21:53:33.935Z,6.40
2019-03-23T21:56:06.409Z,6.50
2019-03-23T21:58:39.531Z,6.50
2019-03-23T22:01:11.445Z,6.60
2019-03-23T22:03:43.409Z,6.60
2019-03-23T22:06:15.221Z,6.60
2019-03-23T22:08:47.463Z,6.60
2019-03-23T22:11:19.627Z,6.60
2019-03-23T22:13:51.859Z,6.60
2019-03-23T22:16:23.893Z,6.50
2019-03-23T22:18:55.707Z,6.40
2019-03-23T22:21:27.609Z,6.30
2019-03-23T22:23:59.446Z,6.30
2019-03-23T22:26:31.419Z,6.20
2019-03-23T22:29:04.311Z,6.20
2019-03-23T22:31:36.145Z,6.10
2019-03-23T22:34:08.355Z,6.10
2019-03-23T22:36:40.815Z,6.00
2019-03-23T22:39:12.969Z,6.10
2019-03-23T22:41:45.447Z,6.00
2019-03-23T22:44:17.609Z,6.00
2019-03-23T22:46:49.487Z,6.10
2019-03-23T22:49:21.390Z,6.00
2019-03-23T22:51:53.717Z,6.00
2019-03-23T22:54:26.037Z,6.10
2019-03-23T22:56:57.821Z,6.10
2019-03-23T22:59:30.021Z,6.20
2019-03-23T23:02:01.915Z,6.20
2019-03-23T23:04:33.997Z,6.20
2019-03-23T23:07:06.402Z,6.20
2019-03-23T23:09:38.625Z,6.20
2019-03-23T23:12:10.850Z,6.20
2019-03-23T23:14:44.322Z,6.20
2019-03-23T23:17:16.463Z,6.20
2019-03-23T23:19:48.334Z,6.20
2019-03-23T23:22:20.187Z,6.20
2019-03-23T23:24:52.146Z,6.20
2019-03-23T23:27:25.122Z,6.10
2019-03-23T23:29:57.122Z,6.10
2019-03-23T23:32:30.876Z,6.10
2019-03-23T23:35:02.869Z,6.10
2019-03-23T23:37:34.863Z,6.10
2019-03-23T23:40:07.388Z,6.10
2019-03-23T23:42:39.456Z,6.20
2019-03-23T23:45:15.708Z,6.20
2019-03-23T23:47:45.978Z,6.20
2019-03-23T23:50:18.208Z,6.30
2019-03-23T23:52:51.056Z,6.30
2019-03-23T23:55:23.460Z,6.30
2019-03-23T23:57:55.433Z,6.40
